sensor_id;sensor_type;location;lat;lon;timestamp;P1;durP1;ratioP1;P2;durP2;ratioP2
26656;SDS011;14279;50.010;8.260;2023-03-01T00:00:10;13.30;;;8.70;;
26656;SDS011;14279;50.010;8.260;2023-03-01T00:02:36;13.97;;;9.17;;
26656;SDS011;14279;50.010;8.260;2023-03-01T00:05:01;15.30;;;10.07;;
26656;SDS011;14279;50.010;8.260;2023-03-01T00:07:27;14.07;;;9.53;;
26656;SDS011;14279;50.010;8.260;2023-03-01T00:09:52;19.33;;;9.67;;
26656;SDS011;14279;50.010;8.260;2023-03-01T00:12:17;16.40;;;8.60;;
26656;SDS011;14279;50.010;8.260;2023-03-01T00:14:42;12.60;;;9.50;;
26656;SDS011;14279;50.010;8.260;2023-03-01T00:17:08;13.47;;;9.27;;
26656;SDS011;14279;50.010;8.260;2023-03-01T00:19:33;15.37;;;9.40;;
26656;SDS011;14279;50.010;8.260;2023-03-01T00:21:58;13.30;;;9.07;;
26656;SDS011;14279;50.010;8.260;2023-03-01T00:24:24;13.50;;;8.80;;
26656;SDS011;14279;50.010;8.260;2023-03-01T00:26:52;13.80;;;9.80;;
26656;SDS011;14279;50.010;8.260;2023-03-01T00:29:20;16.17;;;8.10;;
26656;SDS011;14279;50.010;8.260;2023-03-01T00:31:45;18.73;;;9.70;;
26656;SDS011;14279;50.010;8.260;2023-03-01T00:34:10;15.80;;;9.80;;
26656;SDS011;14279;50.010;8.260;2023-03-01T00:36:36;16.67;;;9.50;;
26656;SDS011;14279;50.010;8.260;2023-03-01T00:39:03;13.13;;;9.50;;
26656;SDS011;14279;50.010;8.260;2023-03-01T00:41:30;12.07;;;8.97;;
26656;SDS011;14279;50.010;8.260;2023-03-01T00:43:55;13.47;;;8.90;;
26656;SDS011;14279;50.010;8.260;2023-03-01T00:46:22;14.00;;;9.03;;
26656;SDS011;14279;50.010;8.260;2023-03-01T00:48:49;12.87;;;8.87;;
26656;SDS011;14279;50.010;8.260;2023-03-01T00:51:16;12.77;;;9.00;;
26656;SDS011;14279;50.010;8.260;2023-03-01T00:53:44;15.20;;;9.57;;
26656;SDS011;14279;50.010;8.260;2023-03-01T00:56:11;14.67;;;9.60;;
26656;SDS011;14279;50.010;8.260;2023-03-01T00:58:38;12.27;;;9.20;;
26656;SDS011;14279;50.010;8.260;2023-03-01T01:01:07;14.30;;;9.33;;
26656;SDS011;14279;50.010;8.260;2023-03-01T01:03:42;15.40;;;10.17;;
26656;SDS011;14279;50.010;8.260;2023-03-01T01:06:18;14.57;;;9.87;;
26656;SDS011;14279;50.010;8.260;2023-03-01T01:08:46;17.93;;;10.00;;
26656;SDS011;14279;50.010;8.260;2023-03-01T01:11:11;12.23;;;9.00;;
26656;SDS011;14279;50.010;8.260;2023-03-01T01:13:38;22.83;;;9.63;;
26656;SDS011;14279;50.010;8.260;2023-03-01T01:16:03;13.60;;;9.00;;
26656;SDS011;14279;50.010;8.260;2023-03-01T01:18:29;13.10;;;8.73;;
26656;SDS011;14279;50.010;8.260;2023-03-01T01:20:54;13.03;;;9.17;;
26656;SDS011;14279;50.010;8.260;2023-03-01T01:23:20;13.83;;;9.87;;
26656;SDS011;14279;50.010;8.260;2023-03-01T01:25:45;15.73;;;9.43;;
26656;SDS011;14279;50.010;8.260;2023-03-01T01:28:10;14.20;;;9.10;;
26656;SDS011;14279;50.010;8.260;2023-03-01T01:30:35;13.63;;;10.03;;
26656;SDS011;14279;50.010;8.260;2023-03-01T01:33:01;15.10;;;10.40;;
26656;SDS011;14279;50.010;8.260;2023-03-01T01:35:27;16.50;;;9.70;;
26656;SDS011;14279;50.010;8.260;2023-03-01T01:37:52;13.70;;;9.60;;
26656;SDS011;14279;50.010;8.260;2023-03-01T01:40:17;15.33;;;10.37;;
26656;SDS011;14279;50.010;8.260;2023-03-01T01:42:42;13.93;;;9.47;;
26656;SDS011;14279;50.010;8.260;2023-03-01T01:48:01;14.70;;;9.73;;
26656;SDS011;14279;50.010;8.260;2023-03-01T01:50:31;13.43;;;9.80;;
26656;SDS011;14279;50.010;8.260;2023-03-01T01:53:07;13.17;;;9.07;;
26656;SDS011;14279;50.010;8.260;2023-03-01T01:55:40;13.73;;;9.50;;
26656;SDS011;14279;50.010;8.260;2023-03-01T01:58:08;16.47;;;10.57;;
26656;SDS011;14279;50.010;8.260;2023-03-01T02:00:35;17.00;;;10.47;;
26656;SDS011;14279;50.010;8.260;2023-03-01T02:03:07;15.20;;;10.00;;
26656;SDS011;14279;50.010;8.260;2023-03-01T02:06:03;15.93;;;10.23;;
26656;SDS011;14279;50.010;8.260;2023-03-01T02:08:32;15.23;;;9.73;;
26656;SDS011;14279;50.010;8.260;2023-03-01T02:11:00;17.67;;;9.90;;
26656;SDS011;14279;50.010;8.260;2023-03-01T02:13:26;19.17;;;10.77;;
26656;SDS011;14279;50.010;8.260;2023-03-01T02:15:51;15.37;;;10.07;;
26656;SDS011;14279;50.010;8.260;2023-03-01T02:18:18;12.47;;;9.93;;
26656;SDS011;14279;50.010;8.260;2023-03-01T02:20:51;16.97;;;11.50;;
26656;SDS011;14279;50.010;8.260;2023-03-01T02:23:27;14.03;;;9.83;;
26656;SDS011;14279;50.010;8.260;2023-03-01T02:25:57;14.03;;;10.37;;
26656;SDS011;14279;50.010;8.260;2023-03-01T02:28:35;14.67;;;10.10;;
26656;SDS011;14279;50.010;8.260;2023-03-01T02:31:03;15.43;;;9.83;;
26656;SDS011;14279;50.010;8.260;2023-03-01T02:33:54;14.40;;;10.20;;
26656;SDS011;14279;50.010;8.260;2023-03-01T02:36:20;13.30;;;9.27;;
26656;SDS011;14279;50.010;8.260;2023-03-01T02:38:49;15.40;;;10.53;;
26656;SDS011;14279;50.010;8.260;2023-03-01T02:41:18;16.47;;;11.27;;
26656;SDS011;14279;50.010;8.260;2023-03-01T02:43:45;14.97;;;11.20;;
26656;SDS011;14279;50.010;8.260;2023-03-01T02:46:15;13.50;;;10.90;;
26656;SDS011;14279;50.010;8.260;2023-03-01T02:48:49;17.40;;;10.80;;
26656;SDS011;14279;50.010;8.260;2023-03-01T02:56:45;15.00;;;10.40;;
26656;SDS011;14279;50.010;8.260;2023-03-01T02:59:13;13.10;;;10.00;;
26656;SDS011;14279;50.010;8.260;2023-03-01T03:01:41;22.87;;;11.23;;
26656;SDS011;14279;50.010;8.260;2023-03-01T03:04:08;16.30;;;10.53;;
26656;SDS011;14279;50.010;8.260;2023-03-01T03:06:35;14.83;;;10.50;;
26656;SDS011;14279;50.010;8.260;2023-03-01T03:09:01;19.87;;;12.10;;
26656;SDS011;14279;50.010;8.260;2023-03-01T03:11:27;17.23;;;11.13;;
26656;SDS011;14279;50.010;8.260;2023-03-01T03:13:52;13.83;;;10.90;;
26656;SDS011;14279;50.010;8.260;2023-03-01T03:16:18;14.70;;;10.60;;
26656;SDS011;14279;50.010;8.260;2023-03-01T03:18:44;13.53;;;10.57;;
26656;SDS011;14279;50.010;8.260;2023-03-01T03:21:10;16.03;;;9.93;;
26656;SDS011;14279;50.010;8.260;2023-03-01T03:23:36;18.97;;;10.70;;
26656;SDS011;14279;50.010;8.260;2023-03-01T03:26:02;22.10;;;11.40;;
26656;SDS011;14279;50.010;8.260;2023-03-01T03:28:31;15.43;;;10.50;;
26656;SDS011;14279;50.010;8.260;2023-03-01T03:30:58;17.23;;;11.60;;
26656;SDS011;14279;50.010;8.260;2023-03-01T03:33:23;16.60;;;10.60;;
26656;SDS011;14279;50.010;8.260;2023-03-01T03:35:49;17.50;;;11.43;;
26656;SDS011;14279;50.010;8.260;2023-03-01T03:38:15;16.90;;;11.00;;
26656;SDS011;14279;50.010;8.260;2023-03-01T03:43:19;16.43;;;10.80;;
26656;SDS011;14279;50.010;8.260;2023-03-01T03:45:46;16.43;;;11.00;;
26656;SDS011;14279;50.010;8.260;2023-03-01T03:48:13;18.33;;;12.40;;
26656;SDS011;14279;50.010;8.260;2023-03-01T03:50:39;16.03;;;11.47;;
26656;SDS011;14279;50.010;8.260;2023-03-01T03:53:07;18.20;;;12.50;;
26656;SDS011;14279;50.010;8.260;2023-03-01T03:55:34;18.00;;;11.47;;
26656;SDS011;14279;50.010;8.260;2023-03-01T03:58:01;18.20;;;10.73;;
26656;SDS011;14279;50.010;8.260;2023-03-01T04:00:32;19.00;;;12.13;;
26656;SDS011;14279;50.010;8.260;2023-03-01T04:02:58;19.50;;;12.00;;
26656;SDS011;14279;50.010;8.260;2023-03-01T04:05:24;19.00;;;10.93;;
26656;SDS011;14279;50.010;8.260;2023-03-01T04:07:49;16.27;;;11.43;;
26656;SDS011;14279;50.010;8.260;2023-03-01T04:10:25;18.80;;;12.13;;
26656;SDS011;14279;50.010;8.260;2023-03-01T04:12:52;15.97;;;11.10;;
26656;SDS011;14279;50.010;8.260;2023-03-01T04:15:17;17.83;;;11.00;;
26656;SDS011;14279;50.010;8.260;2023-03-01T04:17:43;18.03;;;11.80;;
26656;SDS011;14279;50.010;8.260;2023-03-01T04:20:14;15.97;;;11.50;;
26656;SDS011;14279;50.010;8.260;2023-03-01T04:22:50;19.53;;;11.10;;
26656;SDS011;14279;50.010;8.260;2023-03-01T04:25:48;19.50;;;11.20;;
26656;SDS011;14279;50.010;8.260;2023-03-01T04:28:22;18.90;;;11.93;;
26656;SDS011;14279;50.010;8.260;2023-03-01T04:30:49;19.63;;;11.90;;
26656;SDS011;14279;50.010;8.260;2023-03-01T04:33:15;20.50;;;12.43;;
26656;SDS011;14279;50.010;8.260;2023-03-01T04:35:40;15.80;;;11.23;;
26656;SDS011;14279;50.010;8.260;2023-03-01T04:38:05;16.67;;;12.00;;
26656;SDS011;14279;50.010;8.260;2023-03-01T04:40:32;17.77;;;12.33;;
26656;SDS011;14279;50.010;8.260;2023-03-01T04:42:57;20.80;;;12.60;;
26656;SDS011;14279;50.010;8.260;2023-03-01T04:45:23;18.20;;;12.83;;
26656;SDS011;14279;50.010;8.260;2023-03-01T04:47:48;19.37;;;13.30;;
26656;SDS011;14279;50.010;8.260;2023-03-01T04:50:15;18.67;;;12.50;;
26656;SDS011;14279;50.010;8.260;2023-03-01T04:52:42;18.33;;;11.47;;
26656;SDS011;14279;50.010;8.260;2023-03-01T04:55:08;23.50;;;13.40;;
26656;SDS011;14279;50.010;8.260;2023-03-01T04:57:34;21.10;;;12.60;;
26656;SDS011;14279;50.010;8.260;2023-03-01T04:59:59;16.93;;;12.33;;
26656;SDS011;14279;50.010;8.260;2023-03-01T05:02:24;20.00;;;12.60;;
26656;SDS011;14279;50.010;8.260;2023-03-01T05:04:50;24.20;;;12.40;;
26656;SDS011;14279;50.010;8.260;2023-03-01T05:07:15;16.00;;;11.63;;
26656;SDS011;14279;50.010;8.260;2023-03-01T05:09:44;15.63;;;11.80;;
26656;SDS011;14279;50.010;8.260;2023-03-01T05:12:09;22.20;;;13.20;;
26656;SDS011;14279;50.010;8.260;2023-03-01T05:14:34;20.50;;;12.47;;
26656;SDS011;14279;50.010;8.260;2023-03-01T05:17:00;20.10;;;13.70;;
26656;SDS011;14279;50.010;8.260;2023-03-01T05:19:28;20.80;;;12.40;;
26656;SDS011;14279;50.010;8.260;2023-03-01T05:21:55;22.10;;;13.73;;
26656;SDS011;14279;50.010;8.260;2023-03-01T05:24:29;19.70;;;13.07;;
26656;SDS011;14279;50.010;8.260;2023-03-01T05:26:55;20.17;;;12.27;;
26656;SDS011;14279;50.010;8.260;2023-03-01T05:29:21;23.23;;;12.63;;
26656;SDS011;14279;50.010;8.260;2023-03-01T05:31:59;19.43;;;13.53;;
26656;SDS011;14279;50.010;8.260;2023-03-01T05:34:28;18.63;;;12.70;;
26656;SDS011;14279;50.010;8.260;2023-03-01T05:36:55;20.27;;;12.70;;
26656;SDS011;14279;50.010;8.260;2023-03-01T05:39:22;21.93;;;12.40;;
26656;SDS011;14279;50.010;8.260;2023-03-01T05:41:53;19.97;;;13.20;;
26656;SDS011;14279;50.010;8.260;2023-03-01T05:44:19;24.37;;;12.93;;
26656;SDS011;14279;50.010;8.260;2023-03-01T05:46:45;19.73;;;12.77;;
26656;SDS011;14279;50.010;8.260;2023-03-01T05:49:10;19.80;;;12.20;;
26656;SDS011;14279;50.010;8.260;2023-03-01T05:51:38;19.50;;;13.90;;
26656;SDS011;14279;50.010;8.260;2023-03-01T05:54:03;19.27;;;14.23;;
26656;SDS011;14279;50.010;8.260;2023-03-01T05:56:31;21.03;;;14.30;;
26656;SDS011;14279;50.010;8.260;2023-03-01T05:58:57;24.50;;;12.90;;
26656;SDS011;14279;50.010;8.260;2023-03-01T06:01:22;23.73;;;13.67;;
26656;SDS011;14279;50.010;8.260;2023-03-01T06:03:48;21.37;;;12.73;;
26656;SDS011;14279;50.010;8.260;2023-03-01T06:06:13;22.67;;;13.50;;
26656;SDS011;14279;50.010;8.260;2023-03-01T06:08:38;18.93;;;13.67;;
26656;SDS011;14279;50.010;8.260;2023-03-01T06:11:03;19.03;;;12.23;;
26656;SDS011;14279;50.010;8.260;2023-03-01T06:13:30;19.43;;;13.50;;
26656;SDS011;14279;50.010;8.260;2023-03-01T06:15:55;19.83;;;13.27;;
26656;SDS011;14279;50.010;8.260;2023-03-01T06:18:20;23.57;;;13.40;;
26656;SDS011;14279;50.010;8.260;2023-03-01T06:20:51;15.93;;;11.40;;
26656;SDS011;14279;50.010;8.260;2023-03-01T06:23:18;18.60;;;13.07;;
26656;SDS011;14279;50.010;8.260;2023-03-01T06:25:43;18.27;;;13.40;;
26656;SDS011;14279;50.010;8.260;2023-03-01T06:28:08;21.70;;;12.33;;
26656;SDS011;14279;50.010;8.260;2023-03-01T06:30:34;17.67;;;11.97;;
26656;SDS011;14279;50.010;8.260;2023-03-01T06:33:00;20.30;;;12.33;;
26656;SDS011;14279;50.010;8.260;2023-03-01T06:35:26;17.00;;;11.10;;
26656;SDS011;14279;50.010;8.260;2023-03-01T06:37:54;18.80;;;12.20;;
26656;SDS011;14279;50.010;8.260;2023-03-01T06:40:20;17.50;;;10.33;;
26656;SDS011;14279;50.010;8.260;2023-03-01T06:42:47;16.97;;;11.47;;
26656;SDS011;14279;50.010;8.260;2023-03-01T06:45:16;15.67;;;11.10;;
26656;SDS011;14279;50.010;8.260;2023-03-01T06:47:43;16.50;;;11.40;;
26656;SDS011;14279;50.010;8.260;2023-03-01T06:50:08;15.37;;;11.07;;
26656;SDS011;14279;50.010;8.260;2023-03-01T06:52:34;18.90;;;11.60;;
26656;SDS011;14279;50.010;8.260;2023-03-01T06:54:59;17.80;;;11.60;;
26656;SDS011;14279;50.010;8.260;2023-03-01T06:57:25;18.63;;;11.23;;
26656;SDS011;14279;50.010;8.260;2023-03-01T06:59:51;17.10;;;10.80;;
26656;SDS011;14279;50.010;8.260;2023-03-01T07:02:16;17.40;;;10.30;;
26656;SDS011;14279;50.010;8.260;2023-03-01T07:04:42;21.37;;;10.50;;
26656;SDS011;14279;50.010;8.260;2023-03-01T07:07:07;17.90;;;10.90;;
26656;SDS011;14279;50.010;8.260;2023-03-01T07:09:32;24.80;;;12.13;;
26656;SDS011;14279;50.010;8.260;2023-03-01T07:11:58;19.40;;;11.03;;
26656;SDS011;14279;50.010;8.260;2023-03-01T07:14:23;18.90;;;12.60;;
26656;SDS011;14279;50.010;8.260;2023-03-01T07:16:52;17.30;;;10.80;;
26656;SDS011;14279;50.010;8.260;2023-03-01T07:19:17;19.33;;;10.50;;
26656;SDS011;14279;50.010;8.260;2023-03-01T07:21:43;17.03;;;11.10;;
26656;SDS011;14279;50.010;8.260;2023-03-01T07:24:08;14.80;;;11.40;;
26656;SDS011;14279;50.010;8.260;2023-03-01T07:26:33;15.30;;;10.90;;
26656;SDS011;14279;50.010;8.260;2023-03-01T07:28:59;19.70;;;11.20;;
26656;SDS011;14279;50.010;8.260;2023-03-01T07:31:25;18.17;;;11.37;;
26656;SDS011;14279;50.010;8.260;2023-03-01T07:33:53;15.40;;;10.43;;
26656;SDS011;14279;50.010;8.260;2023-03-01T07:36:19;17.80;;;11.07;;
26656;SDS011;14279;50.010;8.260;2023-03-01T07:38:44;17.23;;;9.70;;
26656;SDS011;14279;50.010;8.260;2023-03-01T07:41:09;17.30;;;12.10;;
26656;SDS011;14279;50.010;8.260;2023-03-01T07:43:34;16.77;;;11.10;;
26656;SDS011;14279;50.010;8.260;2023-03-01T07:46:00;17.83;;;11.37;;
26656;SDS011;14279;50.010;8.260;2023-03-01T07:48:26;24.70;;;11.20;;
26656;SDS011;14279;50.010;8.260;2023-03-01T07:50:52;16.20;;;10.67;;
26656;SDS011;14279;50.010;8.260;2023-03-01T07:53:17;19.63;;;11.33;;
26656;SDS011;14279;50.010;8.260;2023-03-01T07:55:42;16.50;;;10.47;;
26656;SDS011;14279;50.010;8.260;2023-03-01T07:58:08;23.30;;;11.43;;
26656;SDS011;14279;50.010;8.260;2023-03-01T08:00:33;18.33;;;10.50;;
26656;SDS011;14279;50.010;8.260;2023-03-01T08:02:59;16.90;;;9.33;;
26656;SDS011;14279;50.010;8.260;2023-03-01T08:05:26;16.47;;;10.63;;
26656;SDS011;14279;50.010;8.260;2023-03-01T08:07:51;24.40;;;12.07;;
26656;SDS011;14279;50.010;8.260;2023-03-01T08:10:17;18.80;;;10.43;;
26656;SDS011;14279;50.010;8.260;2023-03-01T08:12:42;16.77;;;10.53;;
26656;SDS011;14279;50.010;8.260;2023-03-01T08:15:08;20.20;;;12.00;;
26656;SDS011;14279;50.010;8.260;2023-03-01T08:17:34;17.30;;;10.53;;
26656;SDS011;14279;50.010;8.260;2023-03-01T08:19:59;19.00;;;11.50;;
26656;SDS011;14279;50.010;8.260;2023-03-01T08:22:24;16.87;;;12.23;;
26656;SDS011;14279;50.010;8.260;2023-03-01T08:24:50;15.57;;;10.40;;
26656;SDS011;14279;50.010;8.260;2023-03-01T08:27:15;14.90;;;10.70;;
26656;SDS011;14279;50.010;8.260;2023-03-01T08:29:41;19.97;;;11.47;;
26656;SDS011;14279;50.010;8.260;2023-03-01T08:32:06;19.50;;;11.77;;
26656;SDS011;14279;50.010;8.260;2023-03-01T08:34:31;16.10;;;9.87;;
26656;SDS011;14279;50.010;8.260;2023-03-01T08:36:57;15.93;;;10.27;;
26656;SDS011;14279;50.010;8.260;2023-03-01T08:39:22;14.57;;;8.90;;
26656;SDS011;14279;50.010;8.260;2023-03-01T08:41:48;17.37;;;11.43;;
26656;SDS011;14279;50.010;8.260;2023-03-01T08:44:14;14.30;;;8.80;;
26656;SDS011;14279;50.010;8.260;2023-03-01T08:46:41;14.50;;;10.00;;
26656;SDS011;14279;50.010;8.260;2023-03-01T08:49:08;20.37;;;10.63;;
26656;SDS011;14279;50.010;8.260;2023-03-01T08:51:36;17.60;;;10.00;;
26656;SDS011;14279;50.010;8.260;2023-03-01T08:54:02;15.10;;;10.53;;
26656;SDS011;14279;50.010;8.260;2023-03-01T08:56:28;17.67;;;10.70;;
26656;SDS011;14279;50.010;8.260;2023-03-01T08:58:54;14.27;;;9.87;;
26656;SDS011;14279;50.010;8.260;2023-03-01T09:01:19;15.80;;;10.63;;
26656;SDS011;14279;50.010;8.260;2023-03-01T09:03:45;18.30;;;11.47;;
26656;SDS011;14279;50.010;8.260;2023-03-01T09:06:10;18.97;;;11.53;;
26656;SDS011;14279;50.010;8.260;2023-03-01T09:08:37;15.10;;;10.67;;
26656;SDS011;14279;50.010;8.260;2023-03-01T09:11:04;22.20;;;11.10;;
26656;SDS011;14279;50.010;8.260;2023-03-01T09:13:33;17.13;;;11.60;;
26656;SDS011;14279;50.010;8.260;2023-03-01T09:15:59;16.60;;;11.20;;
26656;SDS011;14279;50.010;8.260;2023-03-01T09:18:27;17.37;;;11.47;;
26656;SDS011;14279;50.010;8.260;2023-03-01T09:20:53;19.47;;;11.60;;
26656;SDS011;14279;50.010;8.260;2023-03-01T09:23:20;18.83;;;12.23;;
26656;SDS011;14279;50.010;8.260;2023-03-01T09:25:46;17.83;;;12.23;;
26656;SDS011;14279;50.010;8.260;2023-03-01T09:28:11;18.23;;;11.83;;
26656;SDS011;14279;50.010;8.260;2023-03-01T09:30:36;18.67;;;12.23;;
26656;SDS011;14279;50.010;8.260;2023-03-01T09:33:01;16.10;;;11.07;;
26656;SDS011;14279;50.010;8.260;2023-03-01T09:35:26;16.60;;;11.10;;
26656;SDS011;14279;50.010;8.260;2023-03-01T09:37:52;17.17;;;10.83;;
26656;SDS011;14279;50.010;8.260;2023-03-01T09:40:21;18.57;;;12.13;;
26656;SDS011;14279;50.010;8.260;2023-03-01T09:42:53;18.30;;;12.57;;
26656;SDS011;14279;50.010;8.260;2023-03-01T09:45:35;16.90;;;10.57;;
26656;SDS011;14279;50.010;8.260;2023-03-01T09:48:09;19.60;;;11.30;;
26656;SDS011;14279;50.010;8.260;2023-03-01T09:50:41;18.50;;;10.83;;
26656;SDS011;14279;50.010;8.260;2023-03-01T09:53:15;16.97;;;11.57;;
26656;SDS011;14279;50.010;8.260;2023-03-01T09:55:48;17.13;;;11.50;;
26656;SDS011;14279;50.010;8.260;2023-03-01T09:58:47;17.80;;;10.73;;
26656;SDS011;14279;50.010;8.260;2023-03-01T10:01:29;25.50;;;12.57;;
26656;SDS011;14279;50.010;8.260;2023-03-01T10:04:02;19.70;;;11.23;;
26656;SDS011;14279;50.010;8.260;2023-03-01T10:06:36;20.50;;;13.00;;
26656;SDS011;14279;50.010;8.260;2023-03-01T10:09:10;19.80;;;13.67;;
26656;SDS011;14279;50.010;8.260;2023-03-01T10:11:38;21.40;;;13.10;;
26656;SDS011;14279;50.010;8.260;2023-03-01T10:14:17;17.67;;;11.50;;
26656;SDS011;14279;50.010;8.260;2023-03-01T10:16:57;19.50;;;13.53;;
26656;SDS011;14279;50.010;8.260;2023-03-01T10:24:54;20.93;;;11.90;;
26656;SDS011;14279;50.010;8.260;2023-03-01T10:30:11;21.00;;;11.97;;
26656;SDS011;14279;50.010;8.260;2023-03-01T10:32:42;17.47;;;12.60;;
26656;SDS011;14279;50.010;8.260;2023-03-01T10:35:28;18.70;;;11.80;;
26656;SDS011;14279;50.010;8.260;2023-03-01T10:37:58;18.27;;;12.07;;
26656;SDS011;14279;50.010;8.260;2023-03-01T10:43:18;19.83;;;11.90;;
26656;SDS011;14279;50.010;8.260;2023-03-01T10:45:44;26.47;;;12.97;;
26656;SDS011;14279;50.010;8.260;2023-03-01T10:48:12;19.73;;;12.60;;
26656;SDS011;14279;50.010;8.260;2023-03-01T10:50:41;19.57;;;12.27;;
26656;SDS011;14279;50.010;8.260;2023-03-01T10:53:19;22.67;;;12.40;;
26656;SDS011;14279;50.010;8.260;2023-03-01T10:55:56;22.10;;;12.70;;
26656;SDS011;14279;50.010;8.260;2023-03-01T10:58:23;22.47;;;14.13;;
26656;SDS011;14279;50.010;8.260;2023-03-01T11:00:50;18.73;;;12.87;;
26656;SDS011;14279;50.010;8.260;2023-03-01T11:03:19;24.03;;;13.43;;
26656;SDS011;14279;50.010;8.260;2023-03-01T11:06:20;18.77;;;12.57;;
26656;SDS011;14279;50.010;8.260;2023-03-01T11:08:39;18.33;;;11.93;;
26656;SDS011;14279;50.010;8.260;2023-03-01T11:13:59;25.03;;;12.63;;
26656;SDS011;14279;50.010;8.260;2023-03-01T11:21:35;19.83;;;11.57;;
26656;SDS011;14279;50.010;8.260;2023-03-01T11:24:04;18.90;;;12.73;;
26656;SDS011;14279;50.010;8.260;2023-03-01T11:26:35;18.30;;;11.83;;
26656;SDS011;14279;50.010;8.260;2023-03-01T11:29:06;22.70;;;11.83;;
26656;SDS011;14279;50.010;8.260;2023-03-01T11:31:37;22.07;;;12.30;;
26656;SDS011;14279;50.010;8.260;2023-03-01T11:34:07;16.70;;;11.83;;
26656;SDS011;14279;50.010;8.260;2023-03-01T11:36:41;21.73;;;12.33;;
26656;SDS011;14279;50.010;8.260;2023-03-01T11:42:05;17.03;;;11.50;;
26656;SDS011;14279;50.010;8.260;2023-03-01T11:44:36;16.20;;;11.70;;
26656;SDS011;14279;50.010;8.260;2023-03-01T11:52:35;19.37;;;12.00;;
26656;SDS011;14279;50.010;8.260;2023-03-01T11:55:36;16.10;;;10.73;;
26656;SDS011;14279;50.010;8.260;2023-03-01T12:04:10;17.70;;;10.80;;
26656;SDS011;14279;50.010;8.260;2023-03-01T12:20:45;17.77;;;10.60;;
26656;SDS011;14279;50.010;8.260;2023-03-01T12:23:37;14.70;;;9.80;;
26656;SDS011;14279;50.010;8.260;2023-03-01T12:29:02;15.93;;;10.20;;
26656;SDS011;14279;50.010;8.260;2023-03-01T12:37:49;13.07;;;9.77;;
26656;SDS011;14279;50.010;8.260;2023-03-01T12:46:02;23.43;;;9.93;;
26656;SDS011;14279;50.010;8.260;2023-03-01T12:51:20;13.47;;;9.30;;
26656;SDS011;14279;50.010;8.260;2023-03-01T12:53:50;22.77;;;10.67;;
26656;SDS011;14279;50.010;8.260;2023-03-01T12:56:22;13.60;;;8.07;;
26656;SDS011;14279;50.010;8.260;2023-03-01T13:01:50;11.20;;;8.20;;
26656;SDS011;14279;50.010;8.260;2023-03-01T13:07:23;18.97;;;8.80;;
26656;SDS011;14279;50.010;8.260;2023-03-01T13:17:46;13.50;;;8.20;;
26656;SDS011;14279;50.010;8.260;2023-03-01T13:20:13;10.87;;;8.20;;
26656;SDS011;14279;50.010;8.260;2023-03-01T13:22:41;10.90;;;7.33;;
26656;SDS011;14279;50.010;8.260;2023-03-01T13:27:40;14.73;;;9.07;;
26656;SDS011;14279;50.010;8.260;2023-03-01T13:30:12;12.07;;;7.73;;
26656;SDS011;14279;50.010;8.260;2023-03-01T13:35:50;11.50;;;7.73;;
26656;SDS011;14279;50.010;8.260;2023-03-01T13:41:09;14.63;;;7.53;;
26656;SDS011;14279;50.010;8.260;2023-03-01T13:43:36;18.23;;;8.17;;
26656;SDS011;14279;50.010;8.260;2023-03-01T13:46:24;9.57;;;7.00;;
26656;SDS011;14279;50.010;8.260;2023-03-01T13:48:53;12.50;;;7.30;;
26656;SDS011;14279;50.010;8.260;2023-03-01T13:51:22;14.10;;;8.30;;
26656;SDS011;14279;50.010;8.260;2023-03-01T13:53:50;10.30;;;7.27;;
26656;SDS011;14279;50.010;8.260;2023-03-01T13:58:53;11.83;;;7.40;;
26656;SDS011;14279;50.010;8.260;2023-03-01T14:01:28;11.40;;;7.60;;
26656;SDS011;14279;50.010;8.260;2023-03-01T14:03:55;8.53;;;6.80;;
26656;SDS011;14279;50.010;8.260;2023-03-01T14:06:22;10.00;;;6.80;;
26656;SDS011;14279;50.010;8.260;2023-03-01T14:19:55;10.90;;;7.63;;
26656;SDS011;14279;50.010;8.260;2023-03-01T14:22:23;10.97;;;6.83;;
26656;SDS011;14279;50.010;8.260;2023-03-01T14:24:55;15.77;;;6.90;;
26656;SDS011;14279;50.010;8.260;2023-03-01T14:27:27;10.87;;;7.60;;
26656;SDS011;14279;50.010;8.260;2023-03-01T14:29:58;13.53;;;7.10;;
26656;SDS011;14279;50.010;8.260;2023-03-01T14:32:27;12.67;;;7.77;;
26656;SDS011;14279;50.010;8.260;2023-03-01T14:34:53;10.40;;;6.93;;
26656;SDS011;14279;50.010;8.260;2023-03-01T14:37:27;8.97;;;6.70;;
26656;SDS011;14279;50.010;8.260;2023-03-01T14:39:52;12.00;;;7.70;;
26656;SDS011;14279;50.010;8.260;2023-03-01T14:42:18;16.23;;;7.70;;
26656;SDS011;14279;50.010;8.260;2023-03-01T14:44:46;10.60;;;7.20;;
26656;SDS011;14279;50.010;8.260;2023-03-01T14:47:14;12.93;;;8.03;;
26656;SDS011;14279;50.010;8.260;2023-03-01T14:49:44;13.83;;;7.83;;
26656;SDS011;14279;50.010;8.260;2023-03-01T14:52:53;11.20;;;7.60;;
26656;SDS011;14279;50.010;8.260;2023-03-01T14:55:02;11.20;;;7.10;;
26656;SDS011;14279;50.010;8.260;2023-03-01T14:57:30;11.53;;;7.40;;
26656;SDS011;14279;50.010;8.260;2023-03-01T14:59:59;14.63;;;6.80;;
26656;SDS011;14279;50.010;8.260;2023-03-01T15:02:30;15.93;;;7.40;;
26656;SDS011;14279;50.010;8.260;2023-03-01T15:04:56;12.13;;;7.27;;
26656;SDS011;14279;50.010;8.260;2023-03-01T15:07:28;11.20;;;6.87;;
26656;SDS011;14279;50.010;8.260;2023-03-01T15:09:56;11.77;;;7.40;;
26656;SDS011;14279;50.010;8.260;2023-03-01T15:14:54;20.90;;;7.67;;
26656;SDS011;14279;50.010;8.260;2023-03-01T15:17:25;11.67;;;6.93;;
26656;SDS011;14279;50.010;8.260;2023-03-01T15:19:57;10.70;;;7.20;;
26656;SDS011;14279;50.010;8.260;2023-03-01T15:22:23;11.07;;;5.83;;
26656;SDS011;14279;50.010;8.260;2023-03-01T15:24:51;13.40;;;7.57;;
26656;SDS011;14279;50.010;8.260;2023-03-01T15:27:17;12.00;;;6.90;;
26656;SDS011;14279;50.010;8.260;2023-03-01T15:29:52;10.10;;;7.47;;
26656;SDS011;14279;50.010;8.260;2023-03-01T15:32:25;9.70;;;7.13;;
26656;SDS011;14279;50.010;8.260;2023-03-01T15:34:53;10.90;;;6.83;;
26656;SDS011;14279;50.010;8.260;2023-03-01T15:40:30;11.10;;;6.90;;
26656;SDS011;14279;50.010;8.260;2023-03-01T15:45:25;10.57;;;6.13;;
26656;SDS011;14279;50.010;8.260;2023-03-01T15:48:00;12.40;;;8.00;;
26656;SDS011;14279;50.010;8.260;2023-03-01T15:50:31;15.13;;;7.00;;
26656;SDS011;14279;50.010;8.260;2023-03-01T15:52:58;13.20;;;7.77;;
26656;SDS011;14279;50.010;8.260;2023-03-01T15:55:26;11.30;;;7.80;;
26656;SDS011;14279;50.010;8.260;2023-03-01T15:58:01;12.77;;;7.73;;
26656;SDS011;14279;50.010;8.260;2023-03-01T16:00:28;14.87;;;7.37;;
26656;SDS011;14279;50.010;8.260;2023-03-01T16:02:54;15.70;;;7.33;;
26656;SDS011;14279;50.010;8.260;2023-03-01T16:05:21;10.23;;;7.00;;
26656;SDS011;14279;50.010;8.260;2023-03-01T16:07:50;14.40;;;7.40;;
26656;SDS011;14279;50.010;8.260;2023-03-01T16:10:16;11.80;;;7.37;;
26656;SDS011;14279;50.010;8.260;2023-03-01T16:12:41;11.03;;;7.17;;
26656;SDS011;14279;50.010;8.260;2023-03-01T16:15:20;12.27;;;7.53;;
26656;SDS011;14279;50.010;8.260;2023-03-01T16:17:45;12.70;;;7.07;;
26656;SDS011;14279;50.010;8.260;2023-03-01T16:20:24;13.10;;;7.10;;
26656;SDS011;14279;50.010;8.260;2023-03-01T16:22:59;11.47;;;7.37;;
26656;SDS011;14279;50.010;8.260;2023-03-01T16:30:13;11.23;;;6.80;;
26656;SDS011;14279;50.010;8.260;2023-03-01T18:26:31;15.40;;;8.10;;
26656;SDS011;14279;50.010;8.260;2023-03-01T18:28:56;10.77;;;7.60;;
26656;SDS011;14279;50.010;8.260;2023-03-01T18:31:24;13.17;;;8.43;;